x

South Santa Rosa Is. Ca (46069) Wave Buoy

2:50am - Tue 1st Sep 2015 All times are PDT. -7 hours from GMT.

  • Sig Wave height 6.6ft
  • Peak Period 15s
  • Average Period 7s
  • Wind
    18mph, 20mph gusts
  • Sea Temp 65°f
  • 空気 Temp 63°f
  • Sea Pressure 1011.6mb
  • South Santa Rosa Is. Ca
  • South Santa Rosa Is. Ca

More Historic Weather Station data

Upgrade to MSW Pro to gain access to the past 30 days of data for over 8000 Wavebouys and Weather Stations around the globe.

Join Pro

Comparision Forecast

View Surf forecast
   
Tue 09/01 2:50am 6.5ft 15s 7s 18 20 mph 1011.6mb 65f 63f
1:50am 7.5ft 14s 7s 18 22 mph 1011.8mb 65f 63f
12:50am 7.5ft 15s 6s 20 22 mph 1011.9mb 65f 63f
Mon 08/31 11:50pm 7ft 8s 6s 22 27 mph 1011.5mb 65f 63f
10:50pm 7.5ft 7s 6s 22 27 mph 1011.4mb 65f 63f
9:50pm 8ft 7s 6s 22 27 mph 1011.4mb 65f 64f
8:50pm 8ft 8s 6s 22 27 mph 1011.1mb 65f 64f
7:50pm 7.5ft 8s 6s 25 27 mph 1010.4mb 66f 64f
6:50pm 7ft 8s 6s 25 29 mph 1010.5mb 66f 64f
5:50pm 7ft 16s 7s 25 29 mph 1011mb 66f 65f
4:50pm 7ft 16s 6s 20 27 mph 1011.3mb 66f 65f
3:50pm 6.5ft 15s 6s 20 22 mph 1011.4mb 66f 65f
2:50pm 7ft 15s 6s 18 22 mph 1012mb 66f 65f
1:50pm 6.5ft 8s 6s 20 25 mph 1012.4mb 66f 64f
12:50pm 7ft 16s 6s 20 25 mph 1012.3mb 66f 64f
11:50am 7ft 16s 6s 22 27 mph 1012.2mb 66f 64f
10:50am 7.5ft 16s 6s 25 29 mph 1012.3mb 66f 64f
9:50am 7ft 7s 6s 25 29 mph 1011.9mb 66f 64f
8:50am 8ft 8s 6s 25 29 mph 1011.7mb 66f 64f
7:50am 8.5ft 8s 6s 20 25 mph 1011.5mb 66f 65f
6:50am 8ft 8s 6s 20 25 mph 1010.9mb 66f 65f
5:50am 9ft 8s 7s 20 27 mph 1010.2mb 66f 65f
4:50am 10ft 8s 7s 22 27 mph 1009.8mb 66f 65f
3:50am 9ft 17s 7s 25 29 mph 1009.3mb 65f 65f
2:50am 9ft 8s 6s 25 29 mph 1009.5mb 65f 65f
1:50am 9.5ft 8s 7s 27 31 mph 1009.2mb 66f 65f
12:50am 9.5ft 8s 6s 27 31 mph 1009.3mb 66f 65f
Sun 08/30 11:50pm 10ft 8s 6s 25 29 mph 1009.4mb 66f 65f
10:50pm 10ft 8s 7s 25 31 mph 1009.3mb 66f 65f
9:50pm 9.5ft 7s 6s 25 29 mph 1009.7mb 66f 65f
8:50pm 9ft 8s 6s 27 34 mph 1009.6mb 66f 65f
7:50pm 8ft 7s 6s 27 34 mph 1009.5mb 66f 65f
6:50pm 8.5ft 7s 6s 25 29 mph 1010.2mb 66f 65f
5:50pm 7.5ft 7s 6s 22 27 mph 1010.8mb 66f 65f
4:50pm 7.5ft 7s 6s 22 29 mph 1011.3mb 66f 65f
3:50pm 8ft 7s 6s 22 27 mph 1011.7mb 65f 65f
2:50pm 7.5ft 7s 6s 27 31 mph 1011.6mb 65f 65f
1:50pm 8ft 7s 6s 27 31 mph 1012.2mb 65f 65f
12:50pm 8ft 7s 6s 25 29 mph 1012.8mb 65f 65f
11:50am 8.5ft 7s 6s 27 34 mph 1013.1mb 65f 65f
9:50am 8.5ft 7s 6s 29 36 mph 1012.8mb 65f 65f
8:50am 8.5ft 7s 6s 27 34 mph 1012.9mb 65f 65f
7:50am 7.5ft 6s 5s 25 31 mph 1012.7mb 64f 65f
6:50am 7ft 7s 5s 27 34 mph 1012.2mb 65f 65f
5:50am 6ft 7s 5s 27 31 mph 1011.7mb 65f 65f
4:50am 6ft 6s 5s 25 29 mph 1011.8mb 65f 65f
3:50am 6ft 6s 5s 25 29 mph 1011.8mb 65f 65f
2:50am 6ft 6s 5s 25 31 mph 1011.7mb 65f 66f
1:50am 6ft 14s 6s 25 29 mph 1011.8mb 65f 66f
12:50am 6ft 14s 5s 25 27 mph 1011.6mb 65f 66f
Sat 08/29 11:50pm 5ft 14s 5s 22 27 mph 1011.5mb 64f 65f
10:50pm 5.5ft 6s 5s 22 27 mph 1011.6mb 65f 65f
9:50pm 6ft 6s 5s 25 31 mph 1011.6mb 65f 66f
8:50pm 6ft 6s 5s 27 31 mph 1011.1mb 65f 66f
7:50pm 5.5ft 6s 5s 22 25 mph 1011mb 65f 66f
6:50pm 5.5ft 5s 5s 22 25 mph 1011.1mb 65f 67f
5:50pm 5.5ft 6s 5s 22 27 mph 1011.3mb 65f 67f
4:50pm 6ft 6s 5s 22 27 mph 1011.5mb 64f 67f
3:50pm 6ft 14s 6s 22 27 mph 1011.7mb 65f 67f
2:50pm 5.5ft 5s 5s 20 25 mph 1012.2mb 65f 66f
1:50pm 5ft 15s 5s 18 20 mph 1012.5mb 65f 66f
12:50pm 5ft 14s 5s 20 25 mph 1012.6mb 65f 66f
11:50am 5.5ft 14s 5s 20 22 mph 1012.9mb 65f 65f
10:50am 6ft 6s 5s 22 27 mph 1012.7mb 65f 64f
9:50am 6ft 5s 5s 18 22 mph 1012.7mb 64f 64f
8:50am 5.5ft 6s 5s 22 25 mph 1012.1mb 64f 64f
7:50am 6ft 14s 5s 20 25 mph 1011.7mb 64f 65f
6:50am 6ft 15s 5s 25 29 mph 1010.8mb 64f 64f
5:50am 5.5ft 14s 5s 22 27 mph 1010.4mb 65f 65f
4:50am 5ft 15s 5s 22 27 mph 1010.4mb 65f 65f
3:50am 6ft 15s 6s 22 27 mph 1010.5mb 65f 65f
2:50am 5.5ft 15s 5s 20 27 mph 1010.3mb 65f 65f
1:50am 5ft 6s 5s 20 25 mph 1010.4mb 66f 65f
12:50am 4.5ft 15s 5s 22 25 mph 1010.7mb 67f 65f
Fri 08/28 11:50pm 5.5ft 15s 5s 22 27 mph 1010.7mb 67f 65f
10:50pm 4.5ft 15s 4s 22 25 mph 1010.5mb 67f 65f
9:50pm 5ft 15s 5s 25 29 mph 1010.3mb 67f 65f
8:50pm 5ft 15s 5s 22 25 mph 1010.4mb 67f 65f
7:50pm 4.5ft 15s 5s 22 25 mph 1009.9mb 67f 65f
6:50pm 5ft 15s 5s 18 22 mph 1009.5mb 67f 66f
5:50pm 5ft 15s 6s 18 20 mph 1009.6mb 67f 68f
4:50pm 4.5ft 15s 6s 18 22 mph 1009.6mb 68f 68f
3:50pm 4.5ft 15s 6s 16 18 mph 1010mb 68f 68f
2:50pm 4.5ft 15s 6s 11 13 mph 1010.9mb 68f 68f
1:50pm 4ft 15s 8s 13 16 mph 1010.9mb 69f 69f
12:50pm 3.5ft 15s 7s 7
mph
1011.3mb 69f 69f
11:50am 3.5ft 15s 7s 4 7 mph 1011.8mb 69f 69f